sensor_id;sensor_type;location;lat;lon;timestamp;pressure;altitude;pressure_sealevel;temperature;humidity
48089;BME280;33867;50.314;7.802;2023-07-22T00:02:06;100322.69;;;13.93;86.36
48089;BME280;33867;50.314;7.802;2023-07-22T00:06:33;100316.56;;;13.74;87.06
48089;BME280;33867;50.314;7.802;2023-07-22T00:15:07;100322.66;;;13.85;86.00
48089;BME280;33867;50.314;7.802;2023-07-22T00:19:06;100322.19;;;13.97;85.34
48089;BME280;33867;50.314;7.802;2023-07-22T00:23:12;100323.34;;;13.95;85.81
48089;BME280;33867;50.314;7.802;2023-07-22T00:32:22;100327.69;;;13.63;86.51
48089;BME280;33867;50.314;7.802;2023-07-22T00:36:26;100333.47;;;13.85;84.70
48089;BME280;33867;50.314;7.802;2023-07-22T00:57:21;100326.88;;;13.37;87.13
48089;BME280;33867;50.314;7.802;2023-07-22T01:14:37;100310.44;;;13.64;84.90
48089;BME280;33867;50.314;7.802;2023-07-22T01:18:26;100311.94;;;13.59;84.96
48089;BME280;33867;50.314;7.802;2023-07-22T01:22:18;100308.56;;;13.57;85.54
48089;BME280;33867;50.314;7.802;2023-07-22T01:25:41;100311.69;;;13.86;84.61
48089;BME280;33867;50.314;7.802;2023-07-22T01:29:05;100317.72;;;13.72;84.64
48089;BME280;33867;50.314;7.802;2023-07-22T01:32:27;100313.13;;;13.56;85.64
48089;BME280;33867;50.314;7.802;2023-07-22T01:35:50;100316.78;;;13.47;86.95
48089;BME280;33867;50.314;7.802;2023-07-22T01:39:22;100324.53;;;12.82;89.68
48089;BME280;33867;50.314;7.802;2023-07-22T01:43:04;100314.53;;;13.26;87.58
48089;BME280;33867;50.314;7.802;2023-07-22T01:46:34;100315.16;;;13.54;85.80
48089;BME280;33867;50.314;7.802;2023-07-22T01:49:56;100310.31;;;13.74;84.20
48089;BME280;33867;50.314;7.802;2023-07-22T01:53:23;100311.84;;;13.77;84.12
48089;BME280;33867;50.314;7.802;2023-07-22T01:56:44;100313.16;;;13.72;84.04
48089;BME280;33867;50.314;7.802;2023-07-22T02:00:25;100305.75;;;13.74;82.79
48089;BME280;33867;50.314;7.802;2023-07-22T02:03:53;100311.81;;;13.68;82.36
48089;BME280;33867;50.314;7.802;2023-07-22T02:07:25;100314.16;;;13.63;82.48
48089;BME280;33867;50.314;7.802;2023-07-22T02:11:21;100309.22;;;13.59;82.54
48089;BME280;33867;50.314;7.802;2023-07-22T02:15:13;100311.09;;;13.58;82.50
48089;BME280;33867;50.314;7.802;2023-07-22T02:18:48;100310.25;;;13.58;82.79
48089;BME280;33867;50.314;7.802;2023-07-22T02:22:13;100306.91;;;13.64;82.84
48089;BME280;33867;50.314;7.802;2023-07-22T02:25:39;100304.34;;;13.70;82.83
48089;BME280;33867;50.314;7.802;2023-07-22T02:29:31;100304.19;;;13.64;81.97
48089;BME280;33867;50.314;7.802;2023-07-22T02:33:01;100305.50;;;13.60;82.08
48089;BME280;33867;50.314;7.802;2023-07-22T02:36:34;100306.72;;;13.65;82.26
48089;BME280;33867;50.314;7.802;2023-07-22T02:40:00;100303.19;;;13.65;82.29
48089;BME280;33867;50.314;7.802;2023-07-22T02:43:21;100308.22;;;13.60;82.18
48089;BME280;33867;50.314;7.802;2023-07-22T02:47:09;100304.44;;;13.44;81.79
48089;BME280;33867;50.314;7.802;2023-07-22T02:50:34;100306.66;;;13.41;81.96
48089;BME280;33867;50.314;7.802;2023-07-22T02:54:02;100307.78;;;13.30;81.14
48089;BME280;33867;50.314;7.802;2023-07-22T02:57:29;100300.56;;;13.39;81.52
48089;BME280;33867;50.314;7.802;2023-07-22T03:00:53;100304.22;;;13.30;81.66
48089;BME280;33867;50.314;7.802;2023-07-22T03:04:12;100320.13;;;13.33;81.54
48089;BME280;33867;50.314;7.802;2023-07-22T03:07:47;100313.06;;;13.40;81.24
48089;BME280;33867;50.314;7.802;2023-07-22T03:11:14;100312.41;;;13.46;81.68
48089;BME280;33867;50.314;7.802;2023-07-22T03:15:10;100315.16;;;13.54;81.75
48089;BME280;33867;50.314;7.802;2023-07-22T03:18:43;100321.06;;;13.58;81.17
48089;BME280;33867;50.314;7.802;2023-07-22T03:22:15;100317.00;;;13.54;81.08
48089;BME280;33867;50.314;7.802;2023-07-22T03:25:40;100319.19;;;13.50;80.99
48089;BME280;33867;50.314;7.802;2023-07-22T03:29:11;100333.69;;;13.41;80.94
48089;BME280;33867;50.314;7.802;2023-07-22T03:32:37;100325.53;;;13.33;81.42
48089;BME280;33867;50.314;7.802;2023-07-22T03:36:09;100325.03;;;13.29;81.42
48089;BME280;33867;50.314;7.802;2023-07-22T03:39:33;100322.03;;;13.14;81.42
48089;BME280;33867;50.314;7.802;2023-07-22T03:42:54;100330.78;;;13.08;81.51
48089;BME280;33867;50.314;7.802;2023-07-22T03:46:24;100326.56;;;13.06;81.53
48089;BME280;33867;50.314;7.802;2023-07-22T03:49:44;100328.34;;;12.97;81.91
48089;BME280;33867;50.314;7.802;2023-07-22T03:53:33;100322.59;;;12.92;81.98
48089;BME280;33867;50.314;7.802;2023-07-22T03:57:01;100330.22;;;12.97;81.77
48089;BME280;33867;50.314;7.802;2023-07-22T04:00:55;100328.34;;;12.97;81.65
48089;BME280;33867;50.314;7.802;2023-07-22T04:04:19;100331.91;;;12.98;81.52
48089;BME280;33867;50.314;7.802;2023-07-22T04:08:02;100348.28;;;12.96;81.18
48089;BME280;33867;50.314;7.802;2023-07-22T04:11:30;100335.63;;;12.97;80.95
48089;BME280;33867;50.314;7.802;2023-07-22T04:14:50;100343.72;;;12.97;80.78
48089;BME280;33867;50.314;7.802;2023-07-22T04:18:26;100341.38;;;12.76;80.65
48089;BME280;33867;50.314;7.802;2023-07-22T04:26:58;100339.84;;;12.99;80.40
48089;BME280;33867;50.314;7.802;2023-07-22T04:30:42;100339.06;;;13.07;80.07
48089;BME280;33867;50.314;7.802;2023-07-22T04:34:14;100343.13;;;12.85;80.79
48089;BME280;33867;50.314;7.802;2023-07-22T04:37:37;100346.91;;;12.92;80.47
48089;BME280;33867;50.314;7.802;2023-07-22T04:41:23;100342.25;;;13.02;80.93
48089;BME280;33867;50.314;7.802;2023-07-22T04:44:59;100346.50;;;13.13;80.99
48089;BME280;33867;50.314;7.802;2023-07-22T04:48:34;100341.81;;;13.15;80.67
48089;BME280;33867;50.314;7.802;2023-07-22T04:52:49;100331.84;;;13.15;80.27
48089;BME280;33867;50.314;7.802;2023-07-22T05:00:33;100339.53;;;13.02;79.80
48089;BME280;33867;50.314;7.802;2023-07-22T05:04:02;100340.22;;;13.04;79.92
48089;BME280;33867;50.314;7.802;2023-07-22T05:07:50;100339.44;;;12.86;81.00
48089;BME280;33867;50.314;7.802;2023-07-22T05:11:38;100342.53;;;12.99;79.93
48089;BME280;33867;50.314;7.802;2023-07-22T05:15:34;100335.56;;;13.14;79.74
48089;BME280;33867;50.314;7.802;2023-07-22T05:31:36;100321.09;;;13.24;77.74
48089;BME280;33867;50.314;7.802;2023-07-22T05:35:20;100334.69;;;13.40;77.01
48089;BME280;33867;50.314;7.802;2023-07-22T05:39:12;100320.34;;;13.48;76.77
48089;BME280;33867;50.314;7.802;2023-07-22T05:42:51;100326.66;;;13.56;77.15
48089;BME280;33867;50.314;7.802;2023-07-22T05:46:50;100326.00;;;13.70;76.96
48089;BME280;33867;50.314;7.802;2023-07-22T05:50:38;100332.31;;;13.37;77.68
48089;BME280;33867;50.314;7.802;2023-07-22T05:54:14;100331.31;;;13.38;78.21
48089;BME280;33867;50.314;7.802;2023-07-22T06:02:25;100338.47;;;13.55;78.16
48089;BME280;33867;50.314;7.802;2023-07-22T06:25:46;100338.53;;;16.81;67.50
48089;BME280;33867;50.314;7.802;2023-07-22T06:29:46;100335.63;;;16.60;68.13
48089;BME280;33867;50.314;7.802;2023-07-22T06:34:14;100331.44;;;18.05;64.19
48089;BME280;33867;50.314;7.802;2023-07-22T10:05:51;100231.66;;;27.45;36.87
48089;BME280;33867;50.314;7.802;2023-07-22T10:26:02;100200.88;;;26.98;35.45
48089;BME280;33867;50.314;7.802;2023-07-22T10:29:25;100208.88;;;28.09;35.15
48089;BME280;33867;50.314;7.802;2023-07-22T10:32:51;100212.66;;;28.62;34.60
48089;BME280;33867;50.314;7.802;2023-07-22T10:36:17;100203.03;;;27.34;34.44
48089;BME280;33867;50.314;7.802;2023-07-22T10:40:16;100207.25;;;26.43;36.37
48089;BME280;33867;50.314;7.802;2023-07-22T10:44:25;100216.75;;;26.69;35.85
48089;BME280;33867;50.314;7.802;2023-07-22T10:48:06;100200.31;;;26.40;36.09
48089;BME280;33867;50.314;7.802;2023-07-22T10:51:47;100196.91;;;26.72;35.68
48089;BME280;33867;50.314;7.802;2023-07-22T11:05:16;100196.00;;;26.49;35.76
48089;BME280;33867;50.314;7.802;2023-07-22T11:09:07;100195.56;;;26.24;34.77
48089;BME280;33867;50.314;7.802;2023-07-22T11:13:37;100188.63;;;26.21;35.21
48089;BME280;33867;50.314;7.802;2023-07-22T11:17:05;100167.16;;;26.57;35.70
48089;BME280;33867;50.314;7.802;2023-07-22T11:20:41;100166.16;;;27.02;37.43
48089;BME280;33867;50.314;7.802;2023-07-22T11:24:04;100153.91;;;26.76;36.64
48089;BME280;33867;50.314;7.802;2023-07-22T11:27:29;100163.75;;;27.10;36.56
48089;BME280;33867;50.314;7.802;2023-07-22T11:39:59;100145.22;;;26.89;33.65
48089;BME280;33867;50.314;7.802;2023-07-22T11:43:18;100144.28;;;27.00;34.80
48089;BME280;33867;50.314;7.802;2023-07-22T11:50:16;100156.91;;;25.90;35.09
48089;BME280;33867;50.314;7.802;2023-07-22T11:54:00;100145.63;;;25.75;35.82
48089;BME280;33867;50.314;7.802;2023-07-22T11:57:25;100141.91;;;25.41;35.62
48089;BME280;33867;50.314;7.802;2023-07-22T12:00:44;100139.88;;;25.65;37.84
48089;BME280;33867;50.314;7.802;2023-07-22T12:04:23;100142.31;;;26.07;36.33
48089;BME280;33867;50.314;7.802;2023-07-22T12:11:44;100136.28;;;26.43;35.94
48089;BME280;33867;50.314;7.802;2023-07-22T12:15:21;100120.97;;;26.74;36.18
48089;BME280;33867;50.314;7.802;2023-07-22T12:18:45;100123.03;;;26.62;35.81
48089;BME280;33867;50.314;7.802;2023-07-22T12:22:05;100133.75;;;26.25;36.88
48089;BME280;33867;50.314;7.802;2023-07-22T12:25:24;100123.91;;;26.29;36.88
48089;BME280;33867;50.314;7.802;2023-07-22T12:28:43;100123.38;;;26.66;37.83
48089;BME280;33867;50.314;7.802;2023-07-22T12:32:02;100128.53;;;26.62;38.08
48089;BME280;33867;50.314;7.802;2023-07-22T12:35:21;100125.09;;;26.94;34.60
48089;BME280;33867;50.314;7.802;2023-07-22T12:38:43;100119.84;;;26.92;34.60
48089;BME280;33867;50.314;7.802;2023-07-22T13:11:59;100086.69;;;27.95;32.58
48089;BME280;33867;50.314;7.802;2023-07-22T13:27:28;100096.13;;;29.66;30.57
48089;BME280;33867;50.314;7.802;2023-07-22T14:26:05;100018.28;;;30.68;26.87
